createdAt,value
2019-01-27T00:00:22.373Z,4.61
2019-01-27T00:03:29.724Z,4.84
2019-01-27T00:06:36.843Z,4.67
2019-01-27T00:09:42.665Z,4.45
2019-01-27T00:12:48.718Z,4.57
2019-01-27T00:15:54.477Z,4.56
2019-01-27T00:19:00.320Z,4.63
2019-01-27T00:22:06.677Z,4.57
2019-01-27T00:25:12.528Z,4.64
2019-01-27T00:28:18.395Z,4.45
2019-01-27T00:31:24.148Z,4.14
2019-01-27T00:34:29.905Z,4.41
2019-01-27T00:37:35.661Z,4.41
2019-01-27T00:40:42.614Z,4.70
2019-01-27T00:43:48.370Z,4.61
2019-01-27T00:46:54.132Z,4.63
2019-01-27T00:50:00.010Z,4.38
2019-01-27T00:53:06.156Z,4.34
2019-01-27T00:56:12.016Z,4.44
2019-01-27T00:59:17.768Z,4.15
2019-01-27T01:02:23.576Z,4.14
2019-01-27T01:05:29.522Z,3.88
2019-01-27T01:08:35.276Z,4.20
2019-01-27T01:11:42.249Z,4.07
2019-01-27T01:14:48.036Z,4.01
2019-01-27T01:17:53.800Z,4.29
2019-01-27T01:20:59.655Z,4.32
2019-01-27T01:24:06.230Z,4.24
2019-01-27T01:27:12.106Z,4.21
2019-01-27T01:30:20.606Z,4.19
2019-01-27T01:33:26.485Z,4.40
2019-01-27T01:36:32.237Z,4.38
2019-01-27T01:39:38.077Z,4.47
2019-01-27T01:42:43.931Z,4.44
2019-01-27T01:45:49.682Z,4.39
2019-01-27T01:48:55.429Z,4.37
2019-01-27T01:52:01.182Z,4.37
2019-01-27T01:55:07.045Z,4.48
2019-01-27T01:58:12.896Z,4.33
2019-01-27T02:01:19.152Z,4.51
2019-01-27T02:04:24.907Z,4.47
2019-01-27T02:07:30.659Z,4.69
2019-01-27T02:10:37.498Z,4.55
2019-01-27T02:13:43.245Z,4.74
2019-01-27T02:16:49.083Z,4.69
2019-01-27T02:19:55.054Z,4.65
2019-01-27T02:23:00.808Z,4.76
2019-01-27T02:26:08.538Z,4.39
2019-01-27T02:29:14.380Z,4.49
2019-01-27T02:32:20.220Z,4.56
2019-01-27T02:35:26.194Z,4.69
2019-01-27T02:38:32.225Z,4.66
2019-01-27T02:41:38.103Z,4.46
2019-01-27T02:44:44.047Z,4.37
2019-01-27T02:47:49.904Z,4.30
2019-01-27T02:50:55.855Z,4.44
2019-01-27T02:54:01.699Z,4.71
2019-01-27T02:57:07.730Z,4.57
2019-01-27T03:00:14.200Z,4.56
2019-01-27T03:03:20.143Z,4.33
2019-01-27T03:06:33.260Z,3.89
2019-01-27T03:09:44.160Z,4.17
2019-01-27T03:12:50.020Z,4.15
2019-01-27T03:15:56.123Z,4.31
2019-01-27T03:19:01.945Z,4.35
2019-01-27T03:22:08.407Z,4.41
2019-01-27T03:25:14.478Z,4.15
2019-01-27T03:28:20.309Z,4.16
2019-01-27T03:31:26.156Z,4.27
2019-01-27T03:34:32.119Z,4.05
2019-01-27T03:37:38.160Z,4.21
2019-01-27T03:40:44.079Z,4.22
2019-01-27T03:43:49.990Z,4.05
2019-01-27T03:46:55.970Z,4.17
2019-01-27T03:50:01.924Z,4.14
2019-01-27T03:53:07.953Z,4.21
2019-01-27T03:56:13.929Z,4.07
2019-01-27T03:59:19.802Z,4.20
2019-01-27T04:02:25.658Z,4.20
2019-01-27T04:05:31.620Z,4.40
2019-01-27T04:08:37.469Z,4.44
2019-01-27T04:11:43.402Z,3.93
2019-01-27T04:14:49.252Z,4.04
2019-01-27T04:17:55.305Z,4.06
2019-01-27T04:21:01.271Z,4.31
2019-01-27T04:24:07.219Z,4.02
2019-01-27T04:27:13.076Z,3.77
2019-01-27T04:30:35.088Z,4.31
2019-01-27T04:33:40.922Z,4.17
2019-01-27T04:36:46.774Z,4.35
2019-01-27T04:39:52.702Z,4.08
2019-01-27T04:42:59.025Z,4.19
2019-01-27T04:46:05.052Z,4.34
2019-01-27T04:49:11.062Z,4.26
2019-01-27T04:52:16.960Z,4.00
2019-01-27T04:55:23.017Z,4.04
2019-01-27T04:58:28.862Z,4.21
2019-01-27T05:01:34.807Z,4.18
2019-01-27T05:04:41.725Z,3.96
2019-01-27T05:07:47.648Z,4.13
2019-01-27T05:10:53.553Z,3.94
2019-01-27T05:13:59.410Z,4.19
2019-01-27T05:17:05.452Z,4.13
2019-01-27T05:20:12.209Z,4.53
2019-01-27T05:23:18.053Z,4.22
2019-01-27T05:26:23.962Z,4.23
2019-01-27T05:29:29.836Z,4.43
2019-01-27T05:32:35.783Z,4.45
2019-01-27T05:35:41.751Z,4.50
2019-01-27T05:38:50.422Z,4.56
2019-01-27T05:41:56.272Z,4.62
2019-01-27T05:45:02.154Z,4.70
2019-01-27T05:48:07.996Z,4.63
2019-01-27T05:51:13.928Z,4.51
2019-01-27T05:54:20.257Z,4.67
2019-01-27T05:57:26.258Z,4.69
2019-01-27T06:00:40.685Z,4.76
2019-01-27T06:03:46.557Z,4.61
2019-01-27T06:06:54.121Z,4.63
2019-01-27T06:10:00.009Z,4.53
2019-01-27T06:13:05.947Z,4.61
2019-01-27T06:16:12.005Z,4.70
2019-01-27T06:19:18.203Z,4.97
2019-01-27T06:22:24.186Z,4.85
2019-01-27T06:25:30.173Z,5.18
2019-01-27T06:28:36.033Z,5.22
2019-01-27T06:31:42.112Z,5.43
2019-01-27T06:34:48.035Z,5.26
2019-01-27T06:37:53.996Z,5.44
2019-01-27T06:41:00.204Z,5.60
2019-01-27T06:44:06.246Z,5.60
2019-01-27T06:47:12.192Z,5.52
2019-01-27T06:50:18.424Z,5.69
2019-01-27T06:53:24.473Z,5.97
2019-01-27T06:56:30.459Z,5.72
2019-01-27T06:59:42.655Z,6.07
2019-01-27T07:02:57.209Z,6.05
2019-01-27T07:06:33.792Z,5.94
2019-01-27T07:09:52.109Z,6.22
2019-01-27T07:13:15.478Z,5.99
2019-01-27T07:16:38.857Z,6.00
2019-01-27T07:20:03.597Z,5.93
2019-01-27T07:23:27.267Z,5.59
2019-01-27T07:26:54.862Z,5.70
2019-01-27T07:30:22.416Z,5.96
2019-01-27T07:33:45.750Z,6.08
2019-01-27T07:37:08.948Z,6.12
2019-01-27T07:40:42.547Z,6.07
2019-01-27T07:44:16.320Z,6.05
2019-01-27T07:47:39.547Z,6.03
2019-01-27T07:51:02.059Z,6.29
2019-01-27T07:54:33.169Z,6.62
2019-01-27T07:58:00.832Z,7.00
2019-01-27T08:01:22.950Z,6.87
2019-01-27T08:04:39.776Z,7.04
2019-01-27T08:07:58.044Z,7.29
2019-01-27T08:11:21.431Z,7.56
2019-01-27T08:14:41.538Z,7.92
2019-01-27T08:18:00.541Z,7.69
2019-01-27T08:21:22.695Z,8.18
2019-01-27T08:24:56.249Z,8.67
2019-01-27T08:28:18.544Z,8.93
2019-01-27T08:31:45.632Z,8.97
2019-01-27T08:35:11.928Z,9.62
2019-01-27T08:38:39.598Z,9.74
2019-01-27T08:42:13.428Z,8.93
2019-01-27T08:45:35.610Z,8.68
2019-01-27T08:48:41.457Z,8.01
2019-01-27T08:51:47.435Z,8.16
2019-01-27T08:54:53.500Z,7.72
2019-01-27T08:57:59.394Z,7.61
2019-01-27T09:01:24.170Z,7.87
2019-01-27T09:04:48.602Z,7.86
2019-01-27T09:08:22.547Z,7.32
2019-01-27T09:11:46.224Z,7.60
2019-01-27T09:15:09.719Z,8.07
2019-01-27T09:18:33.024Z,8.22
2019-01-27T09:21:52.421Z,9.01
2019-01-27T09:25:12.240Z,8.81
2019-01-27T09:28:35.527Z,9.24
2019-01-27T09:31:58.825Z,9.18
2019-01-27T09:35:22.610Z,9.57
2019-01-27T09:39:05.392Z,9.26
2019-01-27T09:42:28.911Z,9.26
2019-01-27T09:46:05.076Z,9.61
2019-01-27T09:49:12.768Z,9.47
2019-01-27T09:52:38.159Z,9.27
2019-01-27T09:56:08.992Z,9.48
2019-01-27T09:59:42.457Z,9.29
2019-01-27T10:03:22.729Z,9.23
2019-01-27T10:06:46.712Z,9.50
2019-01-27T10:10:20.400Z,9.64
2019-01-27T10:13:45.056Z,9.64
2019-01-27T10:17:08.317Z,9.62
2019-01-27T10:20:33.085Z,10.12
2019-01-27T10:24:05.101Z,10.16
2019-01-27T10:27:19.415Z,10.11
2019-01-27T10:30:50.774Z,10.90
2019-01-27T10:34:13.457Z,11.41
2019-01-27T10:37:47.556Z,11.21
2019-01-27T10:41:08.663Z,11.37
2019-01-27T10:44:41.346Z,11.86
2019-01-27T10:48:08.746Z,12.05
2019-01-27T10:51:36.524Z,12.77
2019-01-27T10:55:05.002Z,13.09
2019-01-27T10:58:28.298Z,13.10
2019-01-27T11:01:55.000Z,13.47
2019-01-27T11:05:35.160Z,13.46
2019-01-27T11:08:58.737Z,13.57
2019-01-27T11:12:28.068Z,13.45
2019-01-27T11:15:55.865Z,13.61
2019-01-27T11:19:15.580Z,13.85
2019-01-27T11:22:43.760Z,14.10
2019-01-27T11:26:07.192Z,14.37
2019-01-27T11:29:29.266Z,14.34
2019-01-27T11:32:52.861Z,14.10
2019-01-27T11:36:23.578Z,13.87
2019-01-27T11:39:48.252Z,13.35
2019-01-27T11:43:15.998Z,13.57
2019-01-27T11:46:39.553Z,13.81
2019-01-27T11:49:49.796Z,14.29
2019-01-27T11:53:01.731Z,14.42
2019-01-27T11:56:07.670Z,14.44
2019-01-27T11:59:13.760Z,14.54
2019-01-27T12:02:19.618Z,14.68
2019-01-27T12:05:25.600Z,14.68
2019-01-27T12:08:31.489Z,14.97
2019-01-27T12:11:37.501Z,14.95
2019-01-27T12:14:43.502Z,14.68
2019-01-27T12:17:49.495Z,14.49
2019-01-27T12:20:55.611Z,14.49
2019-01-27T12:24:01.505Z,14.98
2019-01-27T12:27:07.574Z,14.28
2019-01-27T12:30:18.335Z,14.51
2019-01-27T12:33:24.264Z,14.06
2019-01-27T12:36:30.198Z,14.48
2019-01-27T12:39:36.082Z,14.72
2019-01-27T12:42:42.147Z,14.93
2019-01-27T12:45:48.127Z,14.93
2019-01-27T12:48:54.090Z,14.95
2019-01-27T12:51:59.971Z,14.89
2019-01-27T12:55:06.457Z,14.80
2019-01-27T12:58:12.423Z,14.81
2019-01-27T13:01:18.544Z,15.01
2019-01-27T13:04:24.435Z,15.05
2019-01-27T13:07:30.400Z,15.05
2019-01-27T13:10:36.360Z,13.87
2019-01-27T13:13:42.294Z,13.83
2019-01-27T13:16:48.249Z,13.95
2019-01-27T13:19:54.159Z,14.38
2019-01-27T13:23:00.124Z,14.47
2019-01-27T13:26:06.225Z,14.31
2019-01-27T13:29:12.127Z,14.13
2019-01-27T13:32:17.988Z,14.43
2019-01-27T13:35:24.576Z,13.78
2019-01-27T13:38:31.620Z,13.68
2019-01-27T13:41:38.333Z,14.04
2019-01-27T13:44:44.873Z,14.22
2019-01-27T13:47:50.823Z,14.01
2019-01-27T13:50:56.771Z,14.02
2019-01-27T13:54:02.706Z,14.26
2019-01-27T13:57:08.652Z,14.18
2019-01-27T14:00:20.950Z,13.99
2019-01-27T14:03:26.933Z,14.18
2019-01-27T14:06:32.788Z,13.54
2019-01-27T14:09:38.651Z,13.82
2019-01-27T14:12:44.557Z,13.32
2019-01-27T14:15:50.440Z,13.05
2019-01-27T14:18:57.319Z,13.14
2019-01-27T14:22:03.368Z,12.92
2019-01-27T14:25:10.257Z,13.10
2019-01-27T14:28:16.107Z,13.08
2019-01-27T14:31:21.974Z,12.46
2019-01-27T14:34:27.818Z,12.19
2019-01-27T14:37:33.792Z,12.26
2019-01-27T14:40:39.652Z,12.13
2019-01-27T14:43:45.525Z,11.63
2019-01-27T14:46:51.390Z,11.35
2019-01-27T14:49:57.414Z,11.23
2019-01-27T14:53:03.343Z,11.11
2019-01-27T14:56:09.304Z,11.14
2019-01-27T14:59:15.903Z,11.00
2019-01-27T15:02:21.744Z,10.91
2019-01-27T15:05:27.706Z,10.89
2019-01-27T15:08:33.585Z,10.94
2019-01-27T15:11:45.710Z,10.56
2019-01-27T15:14:51.622Z,10.54
2019-01-27T15:18:00.514Z,10.54
2019-01-27T15:21:13.646Z,10.58
2019-01-27T15:24:19.533Z,10.67
2019-01-27T15:27:25.396Z,10.58
2019-01-27T15:30:32.758Z,10.61
2019-01-27T15:33:38.646Z,10.48
2019-01-27T15:36:44.522Z,10.57
2019-01-27T15:39:50.364Z,10.49
2019-01-27T15:42:56.368Z,10.45
2019-01-27T15:46:02.379Z,10.38
2019-01-27T15:49:08.445Z,10.25
2019-01-27T15:52:14.272Z,10.16
2019-01-27T15:55:20.946Z,10.13
2019-01-27T15:58:26.805Z,10.20
2019-01-27T16:01:32.779Z,10.22
2019-01-27T16:04:39.768Z,10.21
2019-01-27T16:07:45.788Z,10.08
2019-01-27T16:10:51.770Z,10.01
2019-01-27T16:13:57.789Z,9.91
2019-01-27T16:17:03.836Z,9.89
2019-01-27T16:20:10.893Z,9.84
2019-01-27T16:23:34.867Z,9.93
2019-01-27T16:26:41.062Z,9.91
2019-01-27T16:30:05.828Z,9.93
2019-01-27T16:33:15.187Z,9.82
2019-01-27T16:36:21.235Z,9.74
2019-01-27T16:39:27.475Z,9.83
2019-01-27T16:42:33.341Z,9.64
2019-01-27T16:45:39.200Z,9.71
2019-01-27T16:48:45.149Z,9.73
2019-01-27T16:51:51.204Z,9.68
2019-01-27T16:54:57.144Z,9.69
2019-01-27T16:58:02.998Z,9.58
2019-01-27T17:01:09.056Z,9.62
2019-01-27T17:04:14.962Z,9.59
2019-01-27T17:07:20.851Z,9.52
2019-01-27T17:10:27.260Z,9.50
2019-01-27T17:13:33.140Z,9.45
2019-01-27T17:16:39.345Z,9.38
2019-01-27T17:19:45.273Z,9.39
2019-01-27T17:22:51.280Z,9.31
2019-01-27T17:25:58.379Z,9.41
2019-01-27T17:29:04.663Z,9.31
2019-01-27T17:32:10.605Z,9.27
2019-01-27T17:35:17.357Z,9.19
2019-01-27T17:38:23.354Z,9.27
2019-01-27T17:41:29.221Z,9.34
2019-01-27T17:44:35.063Z,9.33
2019-01-27T17:47:41.129Z,9.27
2019-01-27T17:50:47.097Z,9.26
2019-01-27T17:54:00.418Z,9.32
2019-01-27T17:57:17.403Z,9.18
2019-01-27T18:00:42.183Z,9.19
2019-01-27T18:04:10.257Z,9.02
2019-01-27T18:07:25.334Z,9.07
2019-01-27T18:10:36.366Z,8.93
2019-01-27T18:14:04.308Z,9.01
2019-01-27T18:17:10.221Z,8.98
2019-01-27T18:20:16.844Z,8.83
2019-01-27T18:23:22.865Z,8.82
2019-01-27T18:26:28.820Z,8.61
2019-01-27T18:29:34.688Z,8.78
2019-01-27T18:32:40.530Z,8.73
2019-01-27T18:35:46.552Z,8.79
2019-01-27T18:38:52.655Z,8.54
2019-01-27T18:41:58.622Z,8.69
2019-01-27T18:45:05.520Z,8.68
2019-01-27T18:48:11.458Z,8.79
2019-01-27T18:51:17.431Z,8.65
2019-01-27T18:54:40.848Z,8.63
2019-01-27T18:58:08.355Z,8.56
2019-01-27T19:01:31.906Z,8.65
2019-01-27T19:04:56.648Z,8.62
2019-01-27T19:08:15.533Z,8.61
2019-01-27T19:11:40.475Z,8.45
2019-01-27T19:14:55.324Z,8.47
2019-01-27T19:18:19.261Z,8.34
2019-01-27T19:21:53.023Z,8.39
2019-01-27T19:25:03.291Z,8.30
2019-01-27T19:28:34.135Z,8.51
2019-01-27T19:32:04.570Z,8.14
2019-01-27T19:35:17.802Z,8.22
2019-01-27T19:38:39.498Z,8.29
2019-01-27T19:42:01.574Z,8.27
2019-01-27T19:45:30.143Z,8.26
2019-01-27T19:49:06.927Z,8.25
2019-01-27T19:52:30.271Z,8.21
2019-01-27T19:56:00.859Z,8.16
2019-01-27T19:59:25.795Z,8.27
2019-01-27T20:02:49.223Z,8.39
2019-01-27T20:06:09.224Z,8.52
2019-01-27T20:09:32.867Z,8.51
2019-01-27T20:13:08.335Z,8.05
2019-01-27T20:16:42.085Z,8.18
2019-01-27T20:20:10.826Z,7.92
2019-01-27T20:23:41.618Z,8.14
2019-01-27T20:27:15.368Z,8.23
2019-01-27T20:30:55.567Z,8.01
2019-01-27T20:34:13.063Z,7.51
2019-01-27T20:37:37.720Z,7.93
2019-01-27T20:41:02.371Z,8.02
2019-01-27T20:44:23.597Z,7.85
2019-01-27T20:47:43.086Z,7.55
2019-01-27T20:51:06.631Z,7.73
2019-01-27T20:54:34.402Z,7.07
2019-01-27T20:57:59.216Z,7.50
2019-01-27T21:01:25.075Z,7.24
2019-01-27T21:04:41.027Z,7.43
2019-01-27T21:07:54.697Z,7.38
2019-01-27T21:11:25.645Z,7.65
2019-01-27T21:14:40.222Z,7.56
2019-01-27T21:17:55.805Z,7.62
2019-01-27T21:21:01.978Z,7.73
2019-01-27T21:24:08.070Z,7.54
2019-01-27T21:27:14.051Z,7.53
2019-01-27T21:30:20.177Z,7.70
2019-01-27T21:33:26.126Z,7.72
2019-01-27T21:36:31.983Z,7.42
2019-01-27T21:39:37.910Z,7.53
2019-01-27T21:42:47.515Z,7.70
2019-01-27T21:45:51.621Z,7.74
2019-01-27T21:48:57.490Z,7.77
2019-01-27T21:52:03.422Z,7.69
2019-01-27T21:55:09.574Z,7.58
2019-01-27T21:58:15.399Z,7.54
2019-01-27T22:01:25.473Z,7.61
2019-01-27T22:04:28.898Z,7.44
2019-01-27T22:07:34.911Z,7.24
2019-01-27T22:10:40.748Z,7.42
2019-01-27T22:13:46.606Z,7.32
2019-01-27T22:16:52.448Z,7.23
2019-01-27T22:19:58.321Z,7.32
2019-01-27T22:23:05.998Z,7.39
2019-01-27T22:26:12.165Z,7.05
2019-01-27T22:29:18.016Z,7.08
2019-01-27T22:32:23.976Z,7.17
2019-01-27T22:35:30.452Z,7.30
2019-01-27T22:38:36.390Z,7.31
2019-01-27T22:41:42.350Z,7.16
2019-01-27T22:44:48.265Z,7.22
2019-01-27T22:47:54.099Z,7.27
2019-01-27T22:51:00.025Z,7.24
2019-01-27T22:54:06.031Z,7.10
2019-01-27T22:57:12.074Z,7.07
2019-01-27T23:00:49.092Z,7.07
2019-01-27T23:03:56.424Z,6.99
2019-01-27T23:07:02.360Z,6.70
2019-01-27T23:10:08.435Z,6.90
2019-01-27T23:13:14.380Z,7.03
2019-01-27T23:16:20.322Z,7.10
2019-01-27T23:19:27.881Z,7.18
2019-01-27T23:22:33.904Z,7.32
2019-01-27T23:25:39.896Z,7.26
2019-01-27T23:28:45.754Z,6.94
2019-01-27T23:31:51.609Z,7.14
2019-01-27T23:34:57.571Z,7.23
2019-01-27T23:38:03.526Z,7.25
2019-01-27T23:41:09.497Z,7.20
2019-01-27T23:44:15.448Z,7.25
2019-01-27T23:47:21.408Z,7.23
2019-01-27T23:50:27.266Z,7.20
2019-01-27T23:53:33.229Z,7.26
2019-01-27T23:56:39.097Z,7.20
2019-01-27T23:59:45.937Z,7.13
